Time;durP1;ratioP1;P1;durP2;ratioP2;P2;SDS_P1;SDS_P2;PMS_P1;PMS_P2;Temp;Humidity;BMP_temperature;BMP_pressure;BME280_temperature;BME280_humidity;BME280_pressure;Samples;Min_cycle;Max_cycle;Signal;HPM_P1;HPM_P2
2023/05/29 00:04:03;;;;;;;;;;;;;;;12.83;53.92773;102615.9;;;;-73
2023/05/29 00:09:03;;;;;;;;;;;;;;;12.73;54.02734;102619.4;;;;-70
2023/05/29 00:14:03;;;;;;;;;;;;;;;12.72;54.04883;102619.8;;;;-71
2023/05/29 00:19:03;;;;;;;;;;;;;;;12.64;54.0957;102625.7;;;;-69
2023/05/29 00:22:32;;;;;;;0.2;0.1;;;;;;;;;;;;;-72
2023/05/29 00:24:03;;;;;;;;;;;;;;;12.62;54.40723;102625.1;;;;-71
2023/05/29 00:29:03;;;;;;;;;;;;;;;12.53;54.34961;102624.5;;;;-70
2023/05/29 00:34:03;;;;;;;;;;;;;;;12.45;54.14941;102627.3;;;;-70
2023/05/29 00:39:03;;;;;;;;;;;;;;;12.43;54.59668;102627.6;;;;-71
2023/05/29 00:44:03;;;;;;;;;;;;;;;12.47;54.57813;102619.2;;;;-71
2023/05/29 00:49:04;;;;;;;;;;;;;;;12.35;54.68555;102631.5;;;;-71
2023/05/29 00:52:34;;;;;;;0.2;0.1;;;;;;;;;;;;;-70
2023/05/29 00:54:03;;;;;;;;;;;;;;;12.31;54.80469;102636.5;;;;-70
2023/05/29 00:59:03;;;;;;;;;;;;;;;12.26;54.77637;102634;;;;-70
2023/05/29 01:04:06;;;;;;;;;;;;;;;12.24;54.80664;102635.1;;;;-70
2023/05/29 01:09:03;;;;;;;;;;;;;;;12.21;55.38477;102641.5;;;;-69
2023/05/29 01:14:06;;;;;;;;;;;;;;;12.17;55.05566;102651.6;;;;-70
2023/05/29 01:19:09;;;;;;;;;;;;;;;12.11;55.46191;102648.7;;;;-71
2023/05/29 01:22:44;;;;;;;0.2;0;;;;;;;;;;;;;-71
2023/05/29 01:24:15;;;;;;;;;;;;;;;12.07;55.41113;102649;;;;-70
2023/05/29 01:29:05;;;;;;;;;;;;;;;12.07;55.58008;102660.3;;;;-71
2023/05/29 01:34:03;;;;;;;;;;;;;;;12;55.48145;102662.9;;;;-71
2023/05/29 01:39:03;;;;;;;;;;;;;;;11.97;55.67871;102667.5;;;;-71
2023/05/29 01:44:08;;;;;;;;;;;;;;;11.93;55.95313;102673.3;;;;-71
2023/05/29 01:49:03;;;;;;;;;;;;;;;11.91;55.57031;102684.5;;;;-71
2023/05/29 01:52:37;;;;;;;0.2;0.1;;;;;;;;;;;;;-72
2023/05/29 01:54:03;;;;;;;;;;;;;;;11.87;55.56543;102686.5;;;;-70
2023/05/29 01:59:04;;;;;;;;;;;;;;;11.84;55.5166;102687.5;;;;-71
2023/05/29 02:04:03;;;;;;;;;;;;;;;11.77;55.66504;102681.9;;;;-71
2023/05/29 02:09:03;;;;;;;;;;;;;;;11.76;55.80762;102680.4;;;;-70
2023/05/29 02:14:04;;;;;;;;;;;;;;;11.69;55.90039;102676.9;;;;-71
2023/05/29 02:19:03;;;;;;;;;;;;;;;11.68;56.01074;102675.4;;;;-72
2023/05/29 02:22:38;;;;;;;0.2;0.1;;;;;;;;;;;;;-71
2023/05/29 02:24:03;;;;;;;;;;;;;;;11.66;55.85059;102674.2;;;;-70
2023/05/29 02:29:05;;;;;;;;;;;;;;;11.6;56.40234;102681.4;;;;-72
2023/05/29 02:34:03;;;;;;;;;;;;;;;11.57;56.28711;102672.8;;;;-71
2023/05/29 02:39:05;;;;;;;;;;;;;;;11.53;56.22559;102671.3;;;;-69
2023/05/29 02:44:05;;;;;;;;;;;;;;;11.51;56.33496;102679.9;;;;-71
2023/05/29 02:49:03;;;;;;;;;;;;;;;11.45;56.46191;102679.7;;;;-71
2023/05/29 02:52:40;;;;;;;0.2;0;;;;;;;;;;;;;-70
2023/05/29 02:54:04;;;;;;;;;;;;;;;11.45;55.94727;102683.4;;;;-71
2023/05/29 02:59:03;;;;;;;;;;;;;;;11.34;56.20215;102678.7;;;;-71
2023/05/29 03:04:03;;;;;;;;;;;;;;;11.34;56.16895;102679.3;;;;-70
2023/05/29 03:09:04;;;;;;;;;;;;;;;11.3;55.98535;102674;;;;-70
2023/05/29 03:14:03;;;;;;;;;;;;;;;11.3;55.87207;102677.3;;;;-71
2023/05/29 03:19:03;;;;;;;;;;;;;;;11.26;55.81055;102684.9;;;;-69
2023/05/29 03:22:40;;;;;;;0.3;0.3;;;;;;;;;;;;;-72
2023/05/29 03:24:03;;;;;;;;;;;;;;;11.21;56.10742;102678.9;;;;-70
2023/05/29 03:29:03;;;;;;;;;;;;;;;11.17;55.75586;102681;;;;-71
2023/05/29 03:34:03;;;;;;;;;;;;;;;11.2;55.86035;102685.1;;;;-69
2023/05/29 03:39:03;;;;;;;;;;;;;;;11.12;55.44824;102684.2;;;;-70
2023/05/29 03:44:03;;;;;;;;;;;;;;;11.09;55.92383;102675;;;;-72
2023/05/29 03:49:03;;;;;;;;;;;;;;;11.1;55.98047;102671.1;;;;-70
2023/05/29 03:52:41;;;;;;;0.2;0;;;;;;;;;;;;;-70
2023/05/29 03:54:03;;;;;;;;;;;;;;;11.08;55.93359;102678.1;;;;-71
2023/05/29 03:59:03;;;;;;;;;;;;;;;11.06;55.62988;102679.4;;;;-71
2023/05/29 04:04:03;;;;;;;;;;;;;;;11.05;55.65039;102679.6;;;;-70
2023/05/29 04:09:03;;;;;;;;;;;;;;;11.07;55.70996;102688.1;;;;-71
2023/05/29 04:14:03;;;;;;;;;;;;;;;11.08;55.38672;102691.7;;;;-71
2023/05/29 04:19:03;;;;;;;;;;;;;;;11.09;55.43359;102702;;;;-70
2023/05/29 04:22:42;;;;;;;0.2;0.1;;;;;;;;;;;;;-72
2023/05/29 04:24:03;;;;;;;;;;;;;;;11.09;55.73438;102706.9;;;;-70
2023/05/29 04:29:03;;;;;;;;;;;;;;;11.1;55.64551;102712.2;;;;-70
2023/05/29 04:34:04;;;;;;;;;;;;;;;11.11;55.81445;102715.8;;;;-68
2023/05/29 04:39:03;;;;;;;;;;;;;;;11.17;55.49902;102716.1;;;;-69
2023/05/29 04:44:03;;;;;;;;;;;;;;;11.18;55.53418;102726.1;;;;-71
2023/05/29 04:49:04;;;;;;;;;;;;;;;11.24;55.67578;102730.4;;;;-70
2023/05/29 04:52:44;;;;;;;0.2;0.1;;;;;;;;;;;;;-69
2023/05/29 04:54:03;;;;;;;;;;;;;;;11.28;55.80371;102728.1;;;;-69
2023/05/29 04:59:03;;;;;;;;;;;;;;;11.39;55.59473;102734.3;;;;-70
2023/05/29 05:04:03;;;;;;;;;;;;;;;11.44;55.66797;102738.1;;;;-68
2023/05/29 05:09:03;;;;;;;;;;;;;;;11.55;55.37988;102743.5;;;;-70
2023/05/29 05:14:03;;;;;;;;;;;;;;;11.74;54.93359;102737.7;;;;-69
2023/05/29 05:19:03;;;;;;;;;;;;;;;11.67;54.88086;102736.2;;;;-70
2023/05/29 05:22:44;;;;;;;0.2;0.1;;;;;;;;;;;;;-71
2023/05/29 05:24:04;;;;;;;;;;;;;;;11.79;55.08594;102743.1;;;;-69
2023/05/29 05:29:03;;;;;;;;;;;;;;;12.24;54.40332;102745.7;;;;-69
2023/05/29 05:34:03;;;;;;;;;;;;;;;12.66;53.81836;102743.4;;;;-70
2023/05/29 05:39:03;;;;;;;;;;;;;;;12.95;53.0791;102749.3;;;;-71
2023/05/29 05:44:03;;;;;;;;;;;;;;;13.23;52.66406;102745.1;;;;-70
2023/05/29 05:49:03;;;;;;;;;;;;;;;13.51;52.16992;102743.3;;;;-69
2023/05/29 05:52:46;;;;;;;0.2;0.1;;;;;;;;;;;;;-70
2023/05/29 05:54:03;;;;;;;;;;;;;;;13.85;51.97363;102740.6;;;;-70
2023/05/29 05:59:03;;;;;;;;;;;;;;;14.15;51.83008;102733.7;;;;-69
2023/05/29 06:04:03;;;;;;;;;;;;;;;14.63;50.81641;102735;;;;-69
2023/05/29 06:09:04;;;;;;;;;;;;;;;15.05;50.18652;102743.3;;;;-71
2023/05/29 06:14:03;;;;;;;;;;;;;;;15.41;49.20215;102738.8;;;;-69
2023/05/29 06:19:04;;;;;;;;;;;;;;;15.58;48.99512;102743.7;;;;-68
2023/05/29 06:22:50;;;;;;;0.2;0.1;;;;;;;;;;;;;-71
2023/05/29 06:24:03;;;;;;;;;;;;;;;15.7;48.89551;102745.6;;;;-69
2023/05/29 06:29:03;;;;;;;;;;;;;;;15.9;48.88281;102751.9;;;;-69
2023/05/29 06:34:05;;;;;;;;;;;;;;;16.3;47.98828;102758;;;;-73
2023/05/29 06:39:03;;;;;;;;;;;;;;;16.67;47.28027;102757.8;;;;-70
2023/05/29 06:44:03;;;;;;;;;;;;;;;16.95;46.5625;102760.3;;;;-68
2023/05/29 06:49:03;;;;;;;;;;;;;;;17.3;45.98633;102759.9;;;;-70
2023/05/29 06:52:49;;;;;;;0.7;0.6;;;;;;;;;;;;;-70
2023/05/29 06:54:03;;;;;;;;;;;;;;;17.56;45.13867;102773.3;;;;-69
2023/05/29 06:59:03;;;;;;;;;;;;;;;17.58;45.15137;102764.1;;;;-69
2023/05/29 07:04:03;;;;;;;;;;;;;;;17.76;44.76074;102773.7;;;;-70
2023/05/29 07:09:03;;;;;;;;;;;;;;;17.83;44.85938;102780.5;;;;-68
2023/05/29 07:14:03;;;;;;;;;;;;;;;18.19;44.3252;102779.3;;;;-68
2023/05/29 07:19:03;;;;;;;;;;;;;;;18.17;44.04004;102786.2;;;;-70
2023/05/29 07:22:51;;;;;;;0.2;0;;;;;;;;;;;;;-70
2023/05/29 07:24:03;;;;;;;;;;;;;;;18.14;44.19531;102786.9;;;;-70
2023/05/29 07:29:03;;;;;;;;;;;;;;;18.18;44.06348;102785.7;;;;-70
2023/05/29 07:34:03;;;;;;;;;;;;;;;18.23;44.3418;102786.9;;;;-69
2023/05/29 07:39:05;;;;;;;;;;;;;;;18.29;43.70898;102800.3;;;;-69
2023/05/29 07:44:03;;;;;;;;;;;;;;;18.29;43.76758;102799.1;;;;-69
2023/05/29 07:49:03;;;;;;;;;;;;;;;18.45;43.70313;102795.5;;;;-69
2023/05/29 07:52:55;;;;;;;0.2;0.1;;;;;;;;;;;;;-70
2023/05/29 07:54:03;;;;;;;;;;;;;;;18.83;43.2959;102799.7;;;;-69
2023/05/29 07:59:03;;;;;;;;;;;;;;;19.16;42.72363;102792.8;;;;-69
2023/05/29 08:04:03;;;;;;;;;;;;;;;19.44;42.22559;102801.1;;;;-69
2023/05/29 08:09:04;;;;;;;;;;;;;;;19.61;41.97754;102790.3;;;;-73
2023/05/29 08:14:03;;;;;;;;;;;;;;;19.93;41.67773;102799.6;;;;-69
2023/05/29 08:19:03;;;;;;;;;;;;;;;20.03;41.45801;102791.7;;;;-70
2023/05/29 08:22:55;;;;;;;0.5;0.1;;;;;;;;;;;;;-70
2023/05/29 08:24:04;;;;;;;;;;;;;;;20.08;41.37109;102805.9;;;;-70
2023/05/29 08:29:03;;;;;;;;;;;;;;;20.4;41.1377;102794.4;;;;-69
2023/05/29 08:34:03;;;;;;;;;;;;;;;20.69;40.70605;102801;;;;-70
2023/05/29 08:39:03;;;;;;;;;;;;;;;20.98;40.35449;102807.1;;;;-72
2023/05/29 08:44:06;;;;;;;;;;;;;;;21.2;39.89258;102803.7;;;;-70
2023/05/29 08:49:05;;;;;;;;;;;;;;;21.34;39.70996;102812.2;;;;-73
2023/05/29 08:53:00;;;;;;;0.2;0.1;;;;;;;;;;;;;-71
2023/05/29 08:54:03;;;;;;;;;;;;;;;21.39;39.68066;102804.8;;;;-71
2023/05/29 08:59:04;;;;;;;;;;;;;;;21.37;39.56348;102802.3;;;;-69
2023/05/29 09:04:03;;;;;;;;;;;;;;;21.65;39.57715;102804.3;;;;-70
2023/05/29 09:09:04;;;;;;;;;;;;;;;21.83;39.40918;102809.5;;;;-70
2023/05/29 09:14:03;;;;;;;;;;;;;;;21.98;38.89355;102816.6;;;;-69
2023/05/29 09:19:11;;;;;;;;;;;;;;;22.21;38.62598;102805.2;;;;-72
2023/05/29 09:23:02;;;;;;;0.4;0.2;;;;;;;;;;;;;-69
2023/05/29 09:24:07;;;;;;;;;;;;;;;22.35;38.23535;102806.1;;;;-68
2023/05/29 09:29:03;;;;;;;;;;;;;;;22.6;38.17578;102812.5;;;;-69
2023/05/29 09:34:05;;;;;;;;;;;;;;;22.79;38.07715;102810.3;;;;-70
2023/05/29 09:39:06;;;;;;;;;;;;;;;22.97;37.9082;102815.1;;;;-69
2023/05/29 09:44:05;;;;;;;;;;;;;;;23.16;37.57813;102816.5;;;;-70
2023/05/29 09:49:04;;;;;;;;;;;;;;;23.27;37.35645;102819.9;;;;-69
2023/05/29 09:53:06;;;;;;;1;0.2;;;;;;;;;;;;;-71
2023/05/29 09:54:04;;;;;;;;;;;;;;;23.45;37.52148;102809.3;;;;-70
2023/05/29 09:59:03;;;;;;;;;;;;;;;23.57;36.66602;102811.6;;;;-71
2023/05/29 10:04:03;;;;;;;;;;;;;;;23.68;36.59375;102807.8;;;;-70
2023/05/29 10:09:03;;;;;;;;;;;;;;;23.9;36.25391;102810.3;;;;-69
2023/05/29 10:14:04;;;;;;;;;;;;;;;24.11;36.20117;102812.9;;;;-71
2023/05/29 10:19:06;;;;;;;;;;;;;;;24.25;35.75;102812.2;;;;-69
2023/05/29 10:23:08;;;;;;;1.1;0.2;;;;;;;;;;;;;-69
2023/05/29 10:24:06;;;;;;;;;;;;;;;24.34;36;102804.7;;;;-69
2023/05/29 10:29:06;;;;;;;;;;;;;;;24.45;35.71973;102802.8;;;;-69
2023/05/29 10:34:06;;;;;;;;;;;;;;;24.51;35.35449;102799.8;;;;-70
2023/05/29 10:39:03;;;;;;;;;;;;;;;24.59;35.03711;102796.6;;;;-69
2023/05/29 10:44:03;;;;;;;;;;;;;;;24.61;35.25781;102789.5;;;;-71
2023/05/29 10:49:04;;;;;;;;;;;;;;;24.66;34.87988;102792.5;;;;-71
2023/05/29 10:53:12;;;;;;;0.2;0.1;;;;;;;;;;;;;-69
2023/05/29 10:54:03;;;;;;;;;;;;;;;24.85;35.17285;102793.5;;;;-70
2023/05/29 10:59:04;;;;;;;;;;;;;;;25.07;34.63379;102791.6;;;;-69
2023/05/29 11:04:15;;;;;;;;;;;;;;;25.22;35.1084;102800;;;;-70
2023/05/29 11:09:07;;;;;;;;;;;;;;;25.32;34.60645;102797.9;;;;-72
2023/05/29 11:14:05;;;;;;;;;;;;;;;25.43;35.12598;102801.7;;;;-70
2023/05/29 11:19:07;;;;;;;;;;;;;;;25.53;34.58691;102801.4;;;;-69
2023/05/29 11:23:19;;;;;;;1.7;0.3;;;;;;;;;;;;;-70
2023/05/29 11:24:06;;;;;;;;;;;;;;;25.38;35.35352;102806.4;;;;-70
2023/05/29 11:29:10;;;;;;;;;;;;;;;25.15;35.03418;102804.4;;;;-70
2023/05/29 11:34:05;;;;;;;;;;;;;;;24.87;34.80371;102806.3;;;;-70
2023/05/29 11:39:04;;;;;;;;;;;;;;;24.61;35.55859;102810.1;;;;-70
2023/05/29 11:44:05;;;;;;;;;;;;;;;24.51;35.93359;102816.4;;;;-70
2023/05/29 11:49:03;;;;;;;;;;;;;;;24.48;36.01172;102824.9;;;;-70
2023/05/29 11:53:20;;;;;;;0.3;0.1;;;;;;;;;;;;;-72
2023/05/29 11:54:03;;;;;;;;;;;;;;;24.51;36.75391;102818;;;;-70
2023/05/29 11:59:07;;;;;;;;;;;;;;;24.53;35.98145;102826.1;;;;-70
2023/05/29 12:04:03;;;;;;;;;;;;;;;24.58;36.29688;102811.4;;;;-71
2023/05/29 12:09:04;;;;;;;;;;;;;;;24.6;35.70898;102811.7;;;;-71
2023/05/29 12:14:04;;;;;;;;;;;;;;;24.61;35.75586;102816.6;;;;-70
2023/05/29 12:19:03;;;;;;;;;;;;;;;24.72;35.49805;102807;;;;-71
2023/05/29 12:23:25;;;;;;;0.4;0.2;;;;;;;;;;;;;-69
2023/05/29 12:24:03;;;;;;;;;;;;;;;24.91;35.55957;102809.1;;;;-69
2023/05/29 12:29:06;;;;;;;;;;;;;;;24.97;35.24023;102804.6;;;;-71
2023/05/29 12:34:06;;;;;;;;;;;;;;;25.02;35.12793;102796.7;;;;-69
2023/05/29 12:39:03;;;;;;;;;;;;;;;25.12;35.43652;102794.2;;;;-70
2023/05/29 12:44:05;;;;;;;;;;;;;;;25.31;36.19434;102802.4;;;;-69
2023/05/29 12:49:13;;;;;;;;;;;;;;;25.43;35.83301;102794.7;;;;-70
2023/05/29 12:53:32;;;;;;;2.7;0.3;;;;;;;;;;;;;-70
2023/05/29 12:54:03;;;;;;;;;;;;;;;25.44;35.46289;102799.3;;;;-70
2023/05/29 12:59:03;;;;;;;;;;;;;;;25.47;35.83594;102788;;;;-70
2023/05/29 13:04:04;;;;;;;;;;;;;;;25.51;35.47949;102800.9;;;;-69
2023/05/29 13:09:03;;;;;;;;;;;;;;;25.49;35.49023;102795.1;;;;-70
2023/05/29 13:14:03;;;;;;;;;;;;;;;25.54;35.2959;102803.8;;;;-72
2023/05/29 13:19:06;;;;;;;;;;;;;;;25.6;35.52148;102797.6;;;;-70
2023/05/29 13:23:33;;;;;;;1;0.2;;;;;;;;;;;;;-68
2023/05/29 13:24:04;;;;;;;;;;;;;;;25.78;35.92969;102807.7;;;;-69
2023/05/29 13:29:03;;;;;;;;;;;;;;;25.89;35.76465;102802.7;;;;-70
2023/05/29 13:34:03;;;;;;;;;;;;;;;26;34.89063;102811.7;;;;-69
2023/05/29 13:39:03;;;;;;;;;;;;;;;25.92;35.48926;102809.1;;;;-70
2023/05/29 13:44:03;;;;;;;;;;;;;;;25.96;35.11914;102795.8;;;;-69
2023/05/29 13:49:03;;;;;;;;;;;;;;;25.96;34.79492;102803.9;;;;-71
2023/05/29 13:53:37;;;;;;;0.5;0.1;;;;;;;;;;;;;-70
2023/05/29 13:54:03;;;;;;;;;;;;;;;25.93;34.29297;102803.3;;;;-69
2023/05/29 13:59:05;;;;;;;;;;;;;;;25.92;34.59473;102791.6;;;;-69
2023/05/29 14:04:03;;;;;;;;;;;;;;;25.84;34.9834;102796.7;;;;-70
2023/05/29 14:09:03;;;;;;;;;;;;;;;25.9;35.52246;102789.5;;;;-69
2023/05/29 14:14:03;;;;;;;;;;;;;;;25.9;34.73242;102794.4;;;;-70
2023/05/29 14:19:03;;;;;;;;;;;;;;;25.86;34.38086;102794.7;;;;-69
2023/05/29 14:23:42;;;;;;;0.3;0.1;;;;;;;;;;;;;-69
2023/05/29 14:24:03;;;;;;;;;;;;;;;25.73;34.97461;102791.6;;;;-68
2023/05/29 14:29:03;;;;;;;;;;;;;;;25.8;35.29395;102792.3;;;;-70
2023/05/29 14:34:03;;;;;;;;;;;;;;;25.84;34.69238;102793.4;;;;-69
2023/05/29 14:39:03;;;;;;;;;;;;;;;25.74;34.98633;102793.8;;;;-69
2023/05/29 14:44:03;;;;;;;;;;;;;;;25.58;35.33398;102791.2;;;;-70
2023/05/29 14:49:03;;;;;;;;;;;;;;;25.45;35.63672;102792.1;;;;-69
2023/05/29 14:53:46;;;;;;;3.4;0.4;;;;;;;;;;;;;-70
2023/05/29 14:54:03;;;;;;;;;;;;;;;25.28;34.69629;102790.4;;;;-69
2023/05/29 14:59:03;;;;;;;;;;;;;;;25.36;35.44434;102799.7;;;;-69
2023/05/29 15:04:03;;;;;;;;;;;;;;;25.35;34.2959;102799.3;;;;-69
2023/05/29 15:09:03;;;;;;;;;;;;;;;25.24;34.18262;102802.1;;;;-70
2023/05/29 15:14:03;;;;;;;;;;;;;;;25.15;34.33789;102798.1;;;;-69
2023/05/29 15:19:03;;;;;;;;;;;;;;;25.14;34.97461;102798;;;;-68
2023/05/29 15:23:51;;;;;;;0.2;0;;;;;;;;;;;;;-70
2023/05/29 15:24:03;;;;;;;;;;;;;;;25.07;34.06543;102796.5;;;;-72
2023/05/29 15:29:03;;;;;;;;;;;;;;;25.01;34.91797;102802;;;;-71
2023/05/29 15:34:03;;;;;;;;;;;;;;;24.88;34.54883;102807.7;;;;-70
2023/05/29 15:39:03;;;;;;;;;;;;;;;24.75;34.88574;102804.7;;;;-69
2023/05/29 15:44:03;;;;;;;;;;;;;;;24.71;35.2666;102803.1;;;;-72
2023/05/29 15:49:03;;;;;;;;;;;;;;;24.6;35.11816;102796.2;;;;-70
2023/05/29 15:53:56;;;;;;;0.2;0;;;;;;;;;;;;;-72
2023/05/29 15:54:05;;;;;;;;;;;;;;;24.47;35.35059;102805.3;;;;-70
2023/05/29 15:59:04;;;;;;;;;;;;;;;24.29;34.74707;102790.9;;;;-69
2023/05/29 16:04:03;;;;;;;;;;;;;;;24.12;35.25391;102796.8;;;;-69
2023/05/29 16:09:03;;;;;;;;;;;;;;;23.95;35.36914;102791.3;;;;-69
2023/05/29 16:14:03;;;;;;;;;;;;;;;23.83;35.95898;102795.9;;;;-75
2023/05/29 16:19:03;;;;;;;;;;;;;;;23.64;35.77051;102791.8;;;;-69
2023/05/29 16:24:00;;;;;;;0.2;0;;;;;;;;;;;;;-69
2023/05/29 16:24:10;;;;;;;;;;;;;;;23.45;35.66309;102784.7;;;;-70
2023/05/29 16:29:05;;;;;;;;;;;;;;;23.39;36.37402;102790.6;;;;-70
2023/05/29 16:34:04;;;;;;;;;;;;;;;23.24;35.77344;102795.8;;;;-70
2023/05/29 16:39:04;;;;;;;;;;;;;;;23.05;36.00098;102806.1;;;;-69
2023/05/29 16:44:03;;;;;;;;;;;;;;;22.87;35.43262;102804.2;;;;-68
2023/05/29 16:49:03;;;;;;;;;;;;;;;22.73;35.66406;102809.3;;;;-67
2023/05/29 16:54:03;;;;;;;1.8;0.8;;;;;;;;;;;;;-69
2023/05/29 16:54:12;;;;;;;;;;;;;;;22.57;36.05371;102807.6;;;;-69
2023/05/29 16:59:05;;;;;;;;;;;;;;;22.39;36.3623;102809.3;;;;-70
2023/05/29 17:04:10;;;;;;;;;;;;;;;22.22;36.11816;102801.1;;;;-70
2023/05/29 17:09:03;;;;;;;;;;;;;;;22.01;36.41211;102812.8;;;;-69
2023/05/29 17:14:03;;;;;;;;;;;;;;;21.86;36.69824;102819.2;;;;-68
2023/05/29 17:19:03;;;;;;;;;;;;;;;21.65;36.72656;102816.9;;;;-69
2023/05/29 17:24:03;;;;;;;;;;;;;;;21.45;37.10156;102828.3;;;;-70
2023/05/29 17:24:15;;;;;;;0.2;0.1;;;;;;;;;;;;;-70
2023/05/29 17:29:03;;;;;;;;;;;;;;;21.18;37.53809;102825;;;;-69
2023/05/29 17:34:03;;;;;;;;;;;;;;;21.01;37.65039;102828.9;;;;-70
2023/05/29 17:39:03;;;;;;;;;;;;;;;20.8;37.89648;102834.7;;;;-70
2023/05/29 17:44:04;;;;;;;;;;;;;;;20.72;38.08398;102839.6;;;;-69
2023/05/29 17:49:03;;;;;;;;;;;;;;;20.46;38.26855;102834.8;;;;-71
2023/05/29 17:54:03;;;;;;;;;;;;;;;20.31;38.53027;102837.5;;;;-71
2023/05/29 17:54:15;;;;;;;0.2;0;;;;;;;;;;;;;-71
2023/05/29 17:59:03;;;;;;;;;;;;;;;20.19;39.02344;102832;;;;-69
2023/05/29 18:04:04;;;;;;;;;;;;;;;20.09;39.2793;102840.1;;;;-69
2023/05/29 18:09:03;;;;;;;;;;;;;;;19.86;39.55469;102836.1;;;;-70
2023/05/29 18:14:03;;;;;;;;;;;;;;;19.7;39.63281;102827.5;;;;-69
2023/05/29 18:19:05;;;;;;;;;;;;;;;19.58;40.02148;102836.3;;;;-68
2023/05/29 18:24:03;;;;;;;;;;;;;;;19.5;39.61426;102829.5;;;;-69
2023/05/29 18:24:13;;;;;;;0.2;0;;;;;;;;;;;;;-73
2023/05/29 18:29:03;;;;;;;;;;;;;;;19.37;39.24902;102826.8;;;;-71
2023/05/29 18:34:03;;;;;;;;;;;;;;;19.2;40.4668;102826.3;;;;-68
2023/05/29 18:39:03;;;;;;;;;;;;;;;19.08;40.44531;102832.6;;;;-69
2023/05/29 18:44:03;;;;;;;;;;;;;;;18.9;40.21191;102836.8;;;;-73
2023/05/29 18:49:03;;;;;;;;;;;;;;;18.66;40.17773;102837.4;;;;-69
2023/05/29 18:54:06;;;;;;;;;;;;;;;18.33;40.74219;102826;;;;-71
2023/05/29 18:54:17;;;;;;;0.6;0.3;;;;;;;;;;;;;-71
2023/05/29 18:59:03;;;;;;;;;;;;;;;18.14;41.4873;102829.9;;;;-69
2023/05/29 19:04:03;;;;;;;;;;;;;;;18.01;40.71191;102827.8;;;;-68
2023/05/29 19:09:04;;;;;;;;;;;;;;;17.78;40.90723;102830.3;;;;-70
2023/05/29 19:14:03;;;;;;;;;;;;;;;17.56;41.44434;102831.8;;;;-70
2023/05/29 19:19:03;;;;;;;;;;;;;;;17.35;42.09473;102839.8;;;;-70
2023/05/29 19:24:03;;;;;;;;;;;;;;;17.12;41.77832;102840.1;;;;-70
2023/05/29 19:24:19;;;;;;;0.4;0.1;;;;;;;;;;;;;-69
2023/05/29 19:29:03;;;;;;;;;;;;;;;16.89;41.86914;102839.1;;;;-69
2023/05/29 19:34:03;;;;;;;;;;;;;;;16.7;42.44141;102844;;;;-69
2023/05/29 19:39:03;;;;;;;;;;;;;;;16.52;42.34473;102846.5;;;;-70
2023/05/29 19:44:05;;;;;;;;;;;;;;;16.3;42.94727;102843.9;;;;-69
2023/05/29 19:49:03;;;;;;;;;;;;;;;16.12;43.46289;102845.9;;;;-69
2023/05/29 19:54:03;;;;;;;;;;;;;;;15.95;43.67188;102844.9;;;;-69
2023/05/29 19:54:21;;;;;;;0.4;0.2;;;;;;;;;;;;;-69
2023/05/29 19:59:03;;;;;;;;;;;;;;;15.81;43.95313;102846.1;;;;-70
2023/05/29 20:04:03;;;;;;;;;;;;;;;15.6;44.16895;102861.7;;;;-69
2023/05/29 20:09:03;;;;;;;;;;;;;;;15.45;44.17773;102864.1;;;;-69
2023/05/29 20:14:03;;;;;;;;;;;;;;;15.3;44.56934;102872.3;;;;-71
2023/05/29 20:19:03;;;;;;;;;;;;;;;15.19;45.05566;102873.8;;;;-69
2023/05/29 20:24:03;;;;;;;;;;;;;;;15.01;45.54492;102868.4;;;;-70
2023/05/29 20:24:23;;;;;;;0.2;0.1;;;;;;;;;;;;;-69
2023/05/29 20:29:03;;;;;;;;;;;;;;;14.91;45.28613;102874.2;;;;-71
2023/05/29 20:34:03;;;;;;;;;;;;;;;14.78;45.89355;102872.9;;;;-67
2023/05/29 20:39:04;;;;;;;;;;;;;;;14.62;46.7002;102875.3;;;;-69
2023/05/29 20:44:06;;;;;;;;;;;;;;;14.53;46.33984;102877.8;;;;-70
2023/05/29 20:49:14;;;;;;;;;;;;;;;14.42;46.49805;102879;;;;-70
2023/05/29 20:54:06;;;;;;;;;;;;;;;14.36;46.68359;102882.7;;;;-70
2023/05/29 20:54:27;;;;;;;0.2;0.1;;;;;;;;;;;;;-69
2023/05/29 20:59:03;;;;;;;;;;;;;;;14.24;47.12207;102882.7;;;;-69
2023/05/29 21:04:06;;;;;;;;;;;;;;;14.14;47.18945;102880.2;;;;-70
2023/05/29 21:09:06;;;;;;;;;;;;;;;14.05;47.41797;102883.2;;;;-69
2023/05/29 21:14:06;;;;;;;;;;;;;;;13.97;47.46484;102887.1;;;;-69
2023/05/29 21:19:06;;;;;;;;;;;;;;;13.85;47.67676;102886.4;;;;-69
2023/05/29 21:24:11;;;;;;;;;;;;;;;13.79;47.83789;102891.2;;;;-71
2023/05/29 21:24:27;;;;;;;0.2;0;;;;;;;;;;;;;-70
2023/05/29 21:29:03;;;;;;;;;;;;;;;13.7;47.77246;102887.5;;;;-69
2023/05/29 21:34:03;;;;;;;;;;;;;;;13.64;48.10449;102887.7;;;;-70
2023/05/29 21:39:03;;;;;;;;;;;;;;;13.55;48.10547;102888.3;;;;-69
2023/05/29 21:44:03;;;;;;;;;;;;;;;13.5;48.03125;102884.5;;;;-70
2023/05/29 21:49:03;;;;;;;;;;;;;;;13.37;48.19824;102888.3;;;;-70
2023/05/29 21:54:03;;;;;;;;;;;;;;;13.31;48.54004;102889.1;;;;-69
2023/05/29 21:54:28;;;;;;;0.2;0.1;;;;;;;;;;;;;-69
2023/05/29 21:59:03;;;;;;;;;;;;;;;13.22;48.63086;102889.2;;;;-68
2023/05/29 22:04:03;;;;;;;;;;;;;;;13.14;48.67871;102885.5;;;;-69
2023/05/29 22:09:03;;;;;;;;;;;;;;;13.11;48.62988;102885.3;;;;-70
2023/05/29 22:14:03;;;;;;;;;;;;;;;13.05;49.20703;102890.8;;;;-69
2023/05/29 22:19:04;;;;;;;;;;;;;;;13;49.34766;102897.1;;;;-70
2023/05/29 22:24:04;;;;;;;;;;;;;;;12.93;49.19336;102897.3;;;;-69
2023/05/29 22:24:30;;;;;;;0.9;0.7;;;;;;;;;;;;;-69
2023/05/29 22:29:03;;;;;;;;;;;;;;;12.92;49.06934;102899.6;;;;-68
2023/05/29 22:34:04;;;;;;;;;;;;;;;12.81;49.37012;102899.1;;;;-68
2023/05/29 22:39:03;;;;;;;;;;;;;;;12.78;49.63672;102896.6;;;;-69
2023/05/29 22:44:03;;;;;;;;;;;;;;;12.71;49.74121;102903.5;;;;-70
2023/05/29 22:49:06;;;;;;;;;;;;;;;12.68;49.82813;102900.2;;;;-69
2023/05/29 22:54:06;;;;;;;;;;;;;;;12.64;49.87891;102902.7;;;;-69
2023/05/29 22:54:32;;;;;;;0.2;0.1;;;;;;;;;;;;;-69
2023/05/29 22:59:08;;;;;;;;;;;;;;;12.58;50.08594;102902.9;;;;-69
2023/05/29 23:04:03;;;;;;;;;;;;;;;12.56;50.19531;102901.2;;;;-69
2023/05/29 23:09:04;;;;;;;;;;;;;;;12.53;50.28125;102898.3;;;;-68
2023/05/29 23:14:03;;;;;;;;;;;;;;;12.47;50.10742;102898.2;;;;-69
2023/05/29 23:19:03;;;;;;;;;;;;;;;12.46;50.47461;102895.7;;;;-69
2023/05/29 23:24:03;;;;;;;;;;;;;;;12.43;50.25879;102893.4;;;;-70
2023/05/29 23:24:35;;;;;;;0.2;0.1;;;;;;;;;;;;;-71
2023/05/29 23:29:03;;;;;;;;;;;;;;;12.4;50.58105;102897.3;;;;-70
2023/05/29 23:34:03;;;;;;;;;;;;;;;12.36;50.41895;102891;;;;-68
2023/05/29 23:39:04;;;;;;;;;;;;;;;12.41;50.61523;102898;;;;-69
2023/05/29 23:44:03;;;;;;;;;;;;;;;12.43;50.43848;102897.3;;;;-69
2023/05/29 23:49:03;;;;;;;;;;;;;;;12.42;50.79688;102895.5;;;;-68
2023/05/29 23:54:03;;;;;;;;;;;;;;;12.4;51.01758;102897.6;;;;-71
2023/05/29 23:54:35;;;;;;;0.2;0.1;;;;;;;;;;;;;-70
2023/05/29 23:59:03;;;;;;;;;;;;;;;12.4;50.88379;102887.9;;;;-68
